Time;durP1;ratioP1;P1;durP2;ratioP2;P2;SDS_P1;SDS_P2;PMS_P1;PMS_P2;Temp;Humidity;BMP_temperature;BMP_pressure;BME280_temperature;BME280_humidity;BME280_pressure;Samples;Min_cycle;Max_cycle;Signal;HPM_P1;HPM_P2
2022/12/15 00:40:26;;;;;;;31.53;20.27;;;-3.70;99.90;;;;;;5038188;28;21059;-81
2022/12/15 00:42:51;;;;;;;34.07;21.07;;;-3.60;99.90;;;;;;5018309;28;20292;-81
2022/12/15 00:45:17;;;;;;;34.33;21.57;;;-3.60;99.90;;;;;;5056002;28;20052;-81
2022/12/15 00:47:43;;;;;;;35.00;20.20;;;-3.60;99.90;;;;;;5039166;28;20122;-81
2022/12/15 01:20:20;;;;;;;34.57;21.53;;;-3.50;99.90;;;;;;5055113;28;20286;-82
2022/12/15 01:22:48;;;;;;;36.47;21.87;;;-3.40;99.90;;;;;;5038452;28;20279;-82
2022/12/15 01:25:15;;;;;;;33.40;21.80;;;-3.50;99.90;;;;;;5022396;28;20037;-82
2022/12/15 01:27:41;;;;;;;33.60;20.70;;;-3.40;99.90;;;;;;5038740;28;20282;-82
2022/12/15 01:30:10;;;;;;;33.57;21.13;;;-3.50;99.90;;;;;;5054872;28;20294;-82
2022/12/15 01:32:36;;;;;;;32.13;21.10;;;-3.50;99.90;;;;;;5053868;28;20310;-82
2022/12/15 01:35:05;;;;;;;33.37;20.63;;;-3.60;99.90;;;;;;5005262;28;20314;-82
2022/12/15 01:37:32;;;;;;;33.70;21.10;;;-3.60;99.90;;;;;;5038740;28;20433;-82
2022/12/15 01:42:41;;;;;;;28.73;19.37;;;-3.60;99.90;;;;;;5055077;28;20287;-82
2022/12/15 01:45:22;;;;;;;29.77;19.43;;;-3.60;99.90;;;;;;5021648;28;20294;-82
2022/12/15 01:48:01;;;;;;;35.33;21.37;;;-3.60;99.90;;;;;;5054720;28;20044;-82
2022/12/15 01:50:29;;;;;;;35.53;21.50;;;-3.70;99.90;;;;;;5038312;28;20286;-82
2022/12/15 01:52:55;;;;;;;37.03;21.20;;;-3.70;99.90;;;;;;5054844;28;20279;-82
2022/12/15 01:55:24;;;;;;;33.40;22.20;;;-3.70;99.90;;;;;;5021704;28;20704;-82
2022/12/15 01:57:57;;;;;;;32.57;20.63;;;-3.70;99.90;;;;;;5038439;28;20036;-82
2022/12/15 02:00:23;;;;;;;34.17;20.30;;;-3.70;99.90;;;;;;5038148;28;20676;-82
2022/12/15 02:02:49;;;;;;;32.27;20.53;;;-3.70;99.90;;;;;;5053588;28;20279;-83
2022/12/15 02:05:16;;;;;;;32.30;20.20;;;-3.70;99.90;;;;;;5017244;28;20119;-82
2022/12/15 02:07:41;;;;;;;29.93;19.63;;;-3.70;99.90;;;;;;5019825;28;20352;-82
2022/12/15 02:10:09;;;;;;;31.67;20.47;;;-3.70;99.90;;;;;;5016921;28;20814;-82
2022/12/15 02:12:47;;;;;;;28.77;18.90;;;-3.70;99.90;;;;;;5038242;28;20396;-82
2022/12/15 02:15:24;;;;;;;30.63;20.63;;;-3.70;99.90;;;;;;5054232;28;20681;-82
2022/12/15 02:18:02;;;;;;;34.90;20.43;;;-3.60;99.90;;;;;;5037909;28;20351;-82
2022/12/15 02:20:42;;;;;;;33.00;19.23;;;-3.60;99.90;;;;;;5072133;28;20338;-82
2022/12/15 02:23:29;;;;;;;29.70;19.67;;;-3.60;99.90;;;;;;5054063;28;20279;-82
2022/12/15 02:26:05;;;;;;;32.07;20.40;;;-3.70;99.90;;;;;;5052919;28;20291;-82
2022/12/15 02:29:01;;;;;;;29.87;20.03;;;-3.70;99.90;;;;;;5054246;28;20279;-81
2022/12/15 02:31:49;;;;;;;35.77;21.27;;;-3.70;99.90;;;;;;5038072;28;20283;-81
2022/12/15 02:34:22;;;;;;;33.67;21.40;;;-3.70;99.90;;;;;;5037675;28;20275;-82
2022/12/15 02:36:54;;;;;;;36.60;22.17;;;-3.70;99.90;;;;;;5037733;28;20443;-82
2022/12/15 02:39:21;;;;;;;37.80;21.17;;;-3.70;99.90;;;;;;5037696;28;20290;-82
2022/12/15 02:41:50;;;;;;;35.50;21.20;;;-3.80;99.90;;;;;;5037692;28;20032;-83
2022/12/15 02:44:25;;;;;;;32.63;20.50;;;-3.80;99.90;;;;;;5017640;28;20292;-82
2022/12/15 02:47:28;;;;;;;32.63;20.10;;;-3.80;99.90;;;;;;5049143;28;20283;-82
2022/12/15 02:50:19;;;;;;;32.43;19.73;;;-3.80;99.90;;;;;;5037207;28;20350;-82
2022/12/15 02:52:57;;;;;;;31.03;21.17;;;-3.80;99.90;;;;;;5037439;28;20336;-82
2022/12/15 02:55:57;;;;;;;33.33;20.73;;;-3.90;99.90;;;;;;5033852;28;20311;-82
2022/12/15 02:58:35;;;;;;;31.67;19.40;;;-3.90;99.90;;;;;;5020356;28;20290;-82
2022/12/15 03:01:12;;;;;;;33.03;20.37;;;-3.90;99.90;;;;;;5021142;28;20279;-82
2022/12/15 03:03:39;;;;;;;30.20;19.20;;;-3.90;99.90;;;;;;5021394;28;20630;-82
2022/12/15 03:06:05;;;;;;;30.63;18.73;;;-3.90;99.90;;;;;;5053079;28;20297;-82
2022/12/15 03:08:31;;;;;;;34.57;20.23;;;-3.90;99.90;;;;;;5057754;28;20370;-82
2022/12/15 03:10:57;;;;;;;32.53;20.10;;;-3.90;99.90;;;;;;5040973;28;20362;-82
2022/12/15 03:13:24;;;;;;;32.20;19.43;;;-3.90;99.90;;;;;;5041042;28;20048;-82
2022/12/15 03:15:51;;;;;;;31.17;19.63;;;-3.90;99.90;;;;;;5040776;28;20307;-82
2022/12/15 03:18:17;;;;;;;30.10;18.73;;;-3.90;99.90;;;;;;5040527;28;20279;-82
2022/12/15 03:20:42;;;;;;;32.77;19.20;;;-3.80;99.90;;;;;;5040767;28;20297;-82
2022/12/15 03:23:08;;;;;;;27.53;18.03;;;-3.80;99.90;;;;;;5056808;28;20036;-82
2022/12/15 03:25:34;;;;;;;32.00;19.20;;;-3.80;99.90;;;;;;5040475;28;20048;-82
2022/12/15 03:28:00;;;;;;;28.17;18.03;;;-3.80;99.90;;;;;;5024021;28;20286;-82
2022/12/15 03:30:25;;;;;;;28.47;17.87;;;-3.80;99.90;;;;;;5040444;28;20052;-82
2022/12/15 03:32:51;;;;;;;29.80;18.77;;;-3.80;99.90;;;;;;5040945;28;20052;-82
2022/12/15 03:35:17;;;;;;;28.87;17.87;;;-3.80;99.90;;;;;;5040423;28;20567;-82
2022/12/15 03:37:43;;;;;;;29.30;17.80;;;-3.80;99.90;;;;;;5056985;28;20047;-82
2022/12/15 03:40:09;;;;;;;27.10;17.83;;;-3.80;99.90;;;;;;5040241;28;20087;-82
2022/12/15 03:42:50;;;;;;;27.60;17.97;;;-3.80;99.90;;;;;;5023938;28;20055;-85
2022/12/15 03:45:21;;;;;;;30.00;18.07;;;-3.80;99.90;;;;;;5022153;28;20307;-85
2022/12/15 03:47:47;;;;;;;25.65;17.90;;;-3.80;99.90;;;;;;5031397;28;20279;-85
2022/12/15 03:50:16;;;;;;;27.70;18.10;;;-3.80;99.90;;;;;;5039440;28;20119;-84
2022/12/15 03:52:42;;;;;;;28.00;17.77;;;-3.80;99.90;;;;;;5056655;28;20278;-84
2022/12/15 03:55:09;;;;;;;27.93;18.33;;;-3.90;99.90;;;;;;5040097;28;20358;-85
2022/12/15 03:57:35;;;;;;;29.63;18.10;;;-3.90;99.90;;;;;;5039967;28;20145;-84
2022/12/15 04:00:00;;;;;;;28.30;17.53;;;-3.90;99.90;;;;;;5040097;28;20774;-85
2022/12/15 04:02:26;;;;;;;28.43;17.83;;;-3.90;99.90;;;;;;5056479;28;20484;-85
2022/12/15 04:04:52;;;;;;;26.73;17.50;;;-3.90;99.90;;;;;;5040134;28;20036;-84
2022/12/15 04:07:17;;;;;;;26.53;17.37;;;-3.90;99.90;;;;;;5039856;28;20631;-84
2022/12/15 04:09:43;;;;;;;24.47;16.73;;;-3.90;99.90;;;;;;5006174;28;20535;-84
2022/12/15 04:12:12;;;;;;;22.57;16.90;;;-3.80;99.90;;;;;;5039721;28;20385;-84
2022/12/15 04:14:41;;;;;;;26.70;16.90;;;-3.90;99.90;;;;;;5056312;28;20044;-84
2022/12/15 04:17:11;;;;;;;29.00;17.80;;;-3.80;99.90;;;;;;5023626;28;20659;-84
2022/12/15 04:22:22;;;;;;;24.70;16.47;;;-3.80;99.90;;;;;;5056037;28;21234;-85
2022/12/15 05:33:20;;;;;;;25.50;15.27;;;-3.10;99.90;;;;;;5054593;28;20366;-84
2022/12/15 05:35:45;;;;;;;23.30;15.17;;;-3.20;99.90;;;;;;5038086;28;20691;-84
2022/12/15 05:38:12;;;;;;;25.60;16.33;;;-3.20;99.90;;;;;;5005466;28;20040;-84
2022/12/15 05:40:37;;;;;;;25.23;15.50;;;-3.20;99.90;;;;;;5010776;28;20385;-84
2022/12/15 05:43:03;;;;;;;23.50;15.47;;;-3.30;99.90;;;;;;5038007;28;20267;-85
2022/12/15 05:45:29;;;;;;;27.77;15.87;;;-3.30;99.90;;;;;;5054010;28;20127;-85
2022/12/15 05:47:54;;;;;;;27.43;16.53;;;-3.20;99.90;;;;;;5037729;28;20037;-84
2022/12/15 05:50:21;;;;;;;20.87;15.50;;;-3.20;99.90;;;;;;5038050;28;20111;-84
2022/12/15 05:52:48;;;;;;;23.20;14.73;;;-3.20;99.90;;;;;;5038353;28;20044;-84
2022/12/15 05:55:17;;;;;;;25.50;15.77;;;-3.20;99.90;;;;;;5054918;28;20309;-85
2022/12/15 05:57:49;;;;;;;25.50;15.17;;;-3.20;99.90;;;;;;5055013;28;20275;-85
2022/12/15 06:00:15;;;;;;;23.58;14.82;;;-3.10;99.90;;;;;;5038507;28;20733;-85
2022/12/15 06:02:40;;;;;;;22.07;14.63;;;-3.10;99.90;;;;;;5001602;28;20064;-84
2022/12/15 06:05:07;;;;;;;21.67;13.93;;;-3.10;99.90;;;;;;5002114;28;20047;-85
2022/12/15 06:07:33;;;;;;;22.40;14.43;;;-3.10;99.90;;;;;;5038513;28;20446;-84
2022/12/15 06:09:58;;;;;;;24.57;15.07;;;-3.10;99.90;;;;;;5037993;28;20317;-83
2022/12/15 06:12:24;;;;;;;23.80;15.27;;;-3.10;99.90;;;;;;5034499;28;20033;-85
2022/12/15 06:14:50;;;;;;;24.00;14.77;;;-3.10;99.90;;;;;;5037642;28;20040;-85
2022/12/15 06:17:16;;;;;;;24.30;15.23;;;-3.10;99.90;;;;;;5021897;28;20113;-84
2022/12/15 06:19:41;;;;;;;24.73;15.57;;;-3.10;99.90;;;;;;5038087;28;20036;-84
2022/12/15 06:22:07;;;;;;;23.57;14.63;;;-3.10;99.90;;;;;;5021669;28;20075;-84
2022/12/15 06:24:33;;;;;;;23.43;14.70;;;-3.10;99.90;;;;;;5054350;28;20033;-84
2022/12/15 06:26:58;;;;;;;25.23;14.97;;;-3.10;99.90;;;;;;5038067;28;20044;-84
2022/12/15 06:29:24;;;;;;;23.57;14.87;;;-3.10;99.90;;;;;;5054680;28;20098;-83
2022/12/15 06:31:50;;;;;;;20.87;14.67;;;-3.10;99.90;;;;;;5039046;28;20090;-84
2022/12/15 06:34:16;;;;;;;23.07;14.83;;;-3.10;99.90;;;;;;5057388;28;20476;-83
2022/12/15 06:36:42;;;;;;;23.23;14.57;;;-3.10;99.90;;;;;;5057765;28;20036;-84
2022/12/15 06:39:12;;;;;;;22.27;14.57;;;-3.10;99.90;;;;;;5024146;28;20293;-84
2022/12/15 06:41:38;;;;;;;21.33;14.73;;;-3.00;99.90;;;;;;5042305;28;20280;-84
2022/12/15 06:44:04;;;;;;;23.27;13.90;;;-3.00;99.90;;;;;;5033254;28;20357;-83
2022/12/15 06:46:33;;;;;;;22.33;14.03;;;-3.00;99.90;;;;;;5025195;28;20279;-83
2022/12/15 06:48:59;;;;;;;23.40;13.87;;;-3.00;99.90;;;;;;5058431;28;20314;-83
2022/12/15 06:51:26;;;;;;;22.83;14.87;;;-3.00;99.90;;;;;;5024575;28;20315;-83
2022/12/15 06:53:55;;;;;;;24.30;15.10;;;-3.00;99.90;;;;;;5058045;28;20120;-84
2022/12/15 06:56:24;;;;;;;20.40;14.97;;;-3.00;99.90;;;;;;5042265;28;20303;-83
2022/12/15 06:58:51;;;;;;;22.40;14.53;;;-2.90;99.90;;;;;;5041910;28;20275;-84
2022/12/15 07:01:18;;;;;;;20.90;13.40;;;-3.00;99.90;;;;;;5057636;28;20281;-83
2022/12/15 07:03:44;;;;;;;23.20;14.83;;;-2.90;99.90;;;;;;5075949;28;20334;-83
2022/12/15 07:06:11;;;;;;;23.20;13.90;;;-2.90;99.90;;;;;;5041594;28;20381;-83
2022/12/15 07:08:37;;;;;;;23.70;15.70;;;-2.80;99.90;;;;;;5057758;28;20044;-83
2022/12/15 07:11:05;;;;;;;23.97;15.00;;;-2.80;99.90;;;;;;5040739;28;20351;-83
2022/12/15 07:13:30;;;;;;;25.77;14.73;;;-2.80;99.90;;;;;;5056236;28;20095;-83
2022/12/15 07:16:00;;;;;;;25.10;15.03;;;-2.70;99.90;;;;;;5041836;28;20295;-83
2022/12/15 07:18:27;;;;;;;27.27;15.20;;;-2.70;99.90;;;;;;5041260;28;20044;-84
2022/12/15 07:20:52;;;;;;;22.03;14.57;;;-2.70;99.90;;;;;;5040039;28;20766;-84
2022/12/15 07:23:18;;;;;;;27.20;15.83;;;-2.70;99.90;;;;;;5052106;28;20315;-84
2022/12/15 07:25:44;;;;;;;22.13;14.73;;;-2.70;99.90;;;;;;5061890;28;20050;-83
2022/12/15 07:28:10;;;;;;;25.27;14.67;;;-2.70;99.90;;;;;;5054332;28;20033;-83
2022/12/15 07:30:37;;;;;;;23.93;15.73;;;-2.70;99.90;;;;;;5021060;28;20044;-86
2022/12/15 07:33:03;;;;;;;25.23;15.17;;;-2.70;99.90;;;;;;5036448;28;20279;-83
2022/12/15 07:35:29;;;;;;;22.30;15.17;;;-2.70;99.90;;;;;;5033028;28;20323;-83
2022/12/15 07:37:55;;;;;;;23.87;15.20;;;-2.80;99.90;;;;;;5035079;28;20285;-84
2022/12/15 07:40:21;;;;;;;24.03;15.07;;;-2.80;99.90;;;;;;5035629;28;20374;-83
2022/12/15 07:42:47;;;;;;;24.43;14.53;;;-2.80;99.90;;;;;;5054033;28;20032;-83
2022/12/15 07:45:13;;;;;;;22.83;15.47;;;-2.70;99.90;;;;;;5032187;28;20494;-83
2022/12/15 07:47:39;;;;;;;21.47;15.03;;;-2.70;99.90;;;;;;5036548;28;20103;-82
2022/12/15 07:50:06;;;;;;;24.60;13.90;;;-2.70;99.90;;;;;;5031510;28;20365;-82
2022/12/15 07:52:32;;;;;;;20.30;14.37;;;-2.60;99.90;;;;;;5017599;28;20286;-82
2022/12/15 07:54:58;;;;;;;21.97;14.10;;;-2.60;99.90;;;;;;5064381;28;20270;-82
2022/12/15 07:57:23;;;;;;;20.93;14.23;;;-2.40;99.90;;;;;;5011610;28;20442;-82
2022/12/15 07:59:50;;;;;;;22.93;13.90;;;-2.40;99.90;;;;;;5047557;28;20814;-84
2022/12/15 08:02:16;;;;;;;21.87;14.00;;;-2.50;99.90;;;;;;5032765;28;20496;-84
2022/12/15 08:04:42;;;;;;;24.50;15.10;;;-2.50;99.90;;;;;;5048206;28;20270;-84
2022/12/15 08:07:09;;;;;;;23.60;14.47;;;-2.50;99.90;;;;;;5047742;28;20305;-84
2022/12/15 08:09:36;;;;;;;21.40;14.40;;;-2.50;99.90;;;;;;5030470;28;20044;-84
2022/12/15 08:12:02;;;;;;;20.67;14.60;;;-2.50;99.90;;;;;;5014967;28;20908;-84
2022/12/15 08:14:28;;;;;;;26.07;14.77;;;-2.50;99.90;;;;;;5047622;28;20278;-84
2022/12/15 08:16:54;;;;;;;23.40;14.83;;;-2.50;99.90;;;;;;5030179;28;20361;-84
2022/12/15 08:19:20;;;;;;;22.87;14.43;;;-2.50;99.90;;;;;;5047668;28;20437;-83
2022/12/15 08:21:46;;;;;;;24.40;15.13;;;-2.50;99.90;;;;;;5029699;28;20044;-84
2022/12/15 08:24:13;;;;;;;24.50;15.00;;;-2.50;99.90;;;;;;5014646;28;20293;-83
2022/12/15 08:26:41;;;;;;;22.67;15.10;;;-2.50;99.90;;;;;;5047337;28;20294;-84
2022/12/15 08:29:11;;;;;;;20.40;14.67;;;-2.40;99.90;;;;;;5031044;28;20368;-84
2022/12/15 08:31:37;;;;;;;23.80;15.43;;;-2.40;99.90;;;;;;5030425;28;20767;-84
2022/12/15 08:34:04;;;;;;;22.00;14.43;;;-2.40;99.90;;;;;;5013135;28;20278;-84
2022/12/15 08:36:31;;;;;;;26.73;16.17;;;-2.30;99.90;;;;;;5046139;28;21446;-85
2022/12/15 08:38:58;;;;;;;23.50;15.80;;;-2.20;99.90;;;;;;5014762;28;20279;-85
2022/12/15 08:41:27;;;;;;;27.40;16.20;;;-2.20;99.90;;;;;;5030459;28;20362;-85
2022/12/15 08:43:54;;;;;;;24.03;15.60;;;-2.10;99.90;;;;;;5047496;28;20279;-84
2022/12/15 08:46:28;;;;;;;22.60;15.33;;;-2.00;99.90;;;;;;5029991;28;20306;-84
2022/12/15 08:48:54;;;;;;;20.43;14.77;;;-2.00;99.90;;;;;;5064174;28;20289;-84
2022/12/15 08:51:22;;;;;;;21.83;14.77;;;-2.00;99.90;;;;;;5014151;28;20288;-85
2022/12/15 08:53:48;;;;;;;23.40;15.03;;;-1.90;99.90;;;;;;5030990;28;20275;-86
2022/12/15 08:56:16;;;;;;;22.93;15.23;;;-1.80;99.90;;;;;;5029160;28;21329;-85
2022/12/15 08:58:43;;;;;;;24.20;15.00;;;-1.80;99.90;;;;;;5027869;28;20036;-85
2022/12/15 09:01:13;;;;;;;21.90;14.93;;;-1.80;99.90;;;;;;5013817;28;20286;-86
2022/12/15 09:03:39;;;;;;;33.90;15.73;;;-1.70;99.90;;;;;;5030833;28;20360;-87
2022/12/15 09:06:07;;;;;;;25.97;15.30;;;-1.60;99.90;;;;;;5029783;28;20279;-86
2022/12/15 09:08:33;;;;;;;22.37;15.30;;;-1.60;99.90;;;;;;5046111;28;20282;-87
2022/12/15 09:11:00;;;;;;;22.70;15.57;;;-1.50;99.90;;;;;;5030321;28;20333;-86
2022/12/15 09:13:27;;;;;;;24.50;16.17;;;-1.40;99.90;;;;;;5046172;28;20475;-86
2022/12/15 09:16:00;;;;;;;22.67;15.83;;;-1.40;99.90;;;;;;5027648;28;20302;-86
2022/12/15 09:18:26;;;;;;;21.87;14.90;;;-1.30;99.90;;;;;;5029229;28;20275;-86
2022/12/15 09:20:53;;;;;;;20.67;14.17;;;-1.20;99.90;;;;;;5045359;28;20827;-86
2022/12/15 09:23:19;;;;;;;19.93;14.40;;;-1.10;99.90;;;;;;5030362;28;21266;-86
2022/12/15 09:25:45;;;;;;;19.27;14.30;;;-1.00;99.90;;;;;;5046648;28;20286;-86
2022/12/15 09:28:12;;;;;;;21.87;14.27;;;-0.90;99.90;;;;;;5029163;28;20275;-85
2022/12/15 09:30:38;;;;;;;18.67;13.10;;;-0.80;99.90;;;;;;5030310;28;20041;-87
2022/12/15 09:33:04;;;;;;;20.00;12.90;;;-0.70;99.90;;;;;;5001537;28;20281;-87
2022/12/15 09:35:29;;;;;;;20.63;13.10;;;-0.60;99.90;;;;;;5033572;28;20036;-86
2022/12/15 09:37:56;;;;;;;19.67;12.73;;;-0.50;99.90;;;;;;5020941;28;20086;-88
2022/12/15 09:40:23;;;;;;;19.13;13.13;;;-0.40;99.90;;;;;;5034533;28;20368;-87
2022/12/15 09:42:55;;;;;;;18.70;13.47;;;-0.30;99.90;;;;;;5048655;28;20839;-88
2022/12/15 09:45:25;;;;;;;17.85;13.27;;;-0.30;99.90;;;;;;5029028;28;20095;-89
2022/12/15 09:48:16;;;;;;;22.40;13.77;;;-0.20;99.90;;;;;;5031688;28;20135;-88
2022/12/15 09:50:46;;;;;;;18.40;13.43;;;-0.20;99.90;;;;;;5033405;28;20286;-88
2022/12/15 09:53:14;;;;;;;18.93;14.17;;;-0.20;99.90;;;;;;5061890;28;20313;-89
2022/12/15 09:55:44;;;;;;;18.43;13.47;;;-0.10;99.90;;;;;;5031554;28;20436;-88
2022/12/15 09:58:47;;;;;;;23.93;14.43;;;-0.10;99.90;;;;;;5030756;28;20282;-88
2022/12/15 10:01:37;;;;;;;23.90;14.17;;;0.00;99.90;;;;;;5044933;28;20410;-89
2022/12/15 10:04:03;;;;;;;20.73;13.90;;;0.00;99.90;;;;;;5031574;28;20354;-88
2022/12/15 10:06:49;;;;;;;22.87;14.90;;;0.00;99.90;;;;;;5032955;28;20124;-87
2022/12/15 10:09:28;;;;;;;21.87;14.20;;;0.00;99.90;;;;;;5033848;28;20060;-88
2022/12/15 10:12:08;;;;;;;20.13;13.83;;;0.10;99.90;;;;;;5034644;28;20063;-87
2022/12/15 10:14:36;;;;;;;23.13;15.73;;;0.10;99.90;;;;;;5050627;28;20044;-88
2022/12/15 10:17:43;;;;;;;19.70;15.10;;;0.10;99.90;;;;;;5033131;28;20060;-88
2022/12/15 10:20:17;;;;;;;20.50;14.57;;;0.20;99.90;;;;;;5032175;28;20785;-88
2022/12/15 10:22:43;;;;;;;21.50;14.83;;;0.20;99.90;;;;;;5051352;28;20036;-87
2022/12/15 10:25:19;;;;;;;22.87;14.60;;;0.20;99.90;;;;;;5034807;28;20089;-88
2022/12/15 10:28:09;;;;;;;28.03;15.37;;;0.20;99.90;;;;;;5031587;28;20037;-89
2022/12/15 10:30:44;;;;;;;22.80;14.90;;;0.20;99.90;;;;;;5049333;28;21056;-89
2022/12/15 10:33:18;;;;;;;19.70;14.80;;;0.30;99.90;;;;;;5033489;28;20048;-88
2022/12/15 10:35:44;;;;;;;23.47;15.23;;;0.30;99.90;;;;;;5050654;28;20052;-87
2022/12/15 10:38:36;;;;;;;19.97;14.63;;;0.30;99.90;;;;;;5035277;28;20384;-87
2022/12/15 10:41:24;;;;;;;21.65;14.43;;;0.40;99.90;;;;;;5034262;28;20604;-87
2022/12/15 10:43:52;;;;;;;21.73;13.93;;;0.40;99.90;;;;;;5033998;28;20028;-87
2022/12/15 10:46:20;;;;;;;22.97;14.27;;;0.50;99.90;;;;;;5033173;28;20098;-88
2022/12/15 10:48:49;;;;;;;18.17;13.83;;;0.60;99.90;;;;;;5031451;28;20040;-87
2022/12/15 10:51:31;;;;;;;19.97;13.63;;;0.70;99.90;;;;;;5033664;28;20179;-88
2022/12/15 10:54:05;;;;;;;;;;;0.70;99.90;;;;;;5048852;28;20047;-87
2022/12/15 10:56:33;;;;;;;19.60;12.90;;;0.70;99.90;;;;;;5033965;28;19928;-88
2022/12/15 10:59:03;;;;;;;18.00;13.03;;;0.80;99.90;;;;;;5032960;28;20487;-88
2022/12/15 11:01:31;;;;;;;15.60;12.73;;;0.80;99.90;;;;;;5035745;28;20058;-88
2022/12/15 11:03:58;;;;;;;20.60;13.50;;;0.90;99.90;;;;;;5031166;28;20068;-88
2022/12/15 11:06:25;;;;;;;19.43;13.87;;;0.90;99.90;;;;;;5032981;28;20125;-89
2022/12/15 11:08:54;;;;;;;19.33;13.40;;;0.90;99.90;;;;;;5032705;28;20044;-89
2022/12/15 11:14:27;;;;;;;20.37;13.93;;;1.00;99.90;;;;;;5053317;28;20512;-88
2022/12/15 11:16:54;;;;;;;20.47;13.57;;;1.00;99.90;;;;;;5034811;28;20400;-90
2022/12/15 11:19:43;;;;;;;21.03;15.53;;;1.00;99.90;;;;;;5034877;28;20396;-89
2022/12/15 11:22:22;;;;;;;19.67;14.27;;;1.10;99.90;;;;;;5032164;28;20051;-90
2022/12/15 11:24:57;;;;;;;20.03;14.37;;;1.00;99.90;;;;;;5035436;28;20079;-89
2022/12/15 11:27:37;;;;;;;17.60;14.30;;;1.10;99.90;;;;;;5054540;28;20561;-88
2022/12/15 11:30:14;;;;;;;20.57;14.57;;;1.10;99.90;;;;;;5036113;28;20056;-90
2022/12/15 11:32:46;;;;;;;19.93;13.67;;;1.10;99.90;;;;;;5035328;28;20511;-90
2022/12/15 11:35:22;;;;;;;19.67;14.23;;;1.10;99.90;;;;;;5035021;28;20056;-90
2022/12/15 11:38:04;;;;;;;19.97;14.27;;;1.20;99.90;;;;;;5032989;28;20125;-88
2022/12/15 11:40:40;;;;;;;20.88;13.48;;;1.30;99.90;;;;;;5035690;28;20040;-88
2022/12/15 11:43:45;;;;;;;18.47;13.10;;;1.30;99.90;;;;;;5033316;28;20055;-88
2022/12/15 11:46:21;;;;;;;19.10;13.03;;;1.40;99.90;;;;;;5033965;28;20044;-90
2022/12/15 11:49:13;;;;;;;17.30;12.57;;;1.50;99.90;;;;;;5033638;28;20040;-88
2022/12/15 11:51:55;;;;;;;19.42;12.45;;;1.50;99.90;;;;;;5051608;28;20040;-89
2022/12/15 11:54:27;;;;;;;18.58;12.60;;;1.60;99.90;;;;;;5035805;28;20119;-87
2022/12/15 11:57:21;;;;;;;21.63;13.18;;;1.70;99.90;;;;;;5066369;28;20051;-88
2022/12/15 12:00:15;;;;;;;19.03;13.43;;;1.70;99.90;;;;;;5051540;28;20539;-88
2022/12/15 12:02:59;;;;;;;17.83;12.33;;;1.70;99.90;;;;;;5049854;28;20032;-88
2022/12/15 12:06:04;;;;;;;16.97;12.30;;;1.80;99.90;;;;;;5031907;28;20377;-88
2022/12/15 12:08:36;;;;;;;18.80;12.23;;;1.80;99.90;;;;;;5050459;28;20068;-89
2022/12/15 12:11:15;;;;;;;17.92;13.48;;;1.80;99.90;;;;;;5034835;28;20032;-88
2022/12/15 12:14:02;;;;;;;18.27;12.33;;;1.90;99.90;;;;;;5046681;28;20039;-89
2022/12/15 12:16:43;;;;;;;17.97;11.90;;;1.90;99.90;;;;;;5034297;28;20041;-88
2022/12/15 12:19:16;;;;;;;17.93;12.67;;;1.90;99.90;;;;;;5035117;28;20037;-89
2022/12/15 12:21:48;;;;;;;18.47;12.33;;;2.00;99.90;;;;;;5062756;28;20041;-89
2022/12/15 12:24:28;;;;;;;19.80;12.02;;;2.00;99.90;;;;;;5032539;28;20507;-89
2022/12/15 12:27:06;;;;;;;18.87;12.40;;;2.00;99.90;;;;;;5033914;28;20170;-88
2022/12/15 12:29:48;;;;;;;18.40;11.87;;;2.00;99.90;;;;;;5048668;28;20591;-88
2022/12/15 12:32:35;;;;;;;15.90;11.00;;;2.00;99.90;;;;;;5033812;28;20037;-90
2022/12/15 12:35:11;;;;;;;16.20;12.43;;;2.10;99.90;;;;;;5047597;28;20120;-88
2022/12/15 12:37:43;;;;;;;17.40;11.67;;;2.10;99.90;;;;;;5032205;28;20415;-89
2022/12/15 12:40:21;;;;;;;17.02;12.20;;;2.20;99.90;;;;;;5031954;28;20074;-89
2022/12/15 12:42:58;;;;;;;17.97;12.40;;;2.20;99.90;;;;;;5031092;28;20090;-89
2022/12/15 12:45:46;;;;;;;19.03;12.37;;;2.20;99.90;;;;;;5033147;28;20041;-90
2022/12/15 12:48:36;;;;;;;19.13;12.60;;;2.20;99.90;;;;;;5046732;28;20047;-91
2022/12/15 12:51:16;;;;;;;20.67;12.07;;;2.20;99.90;;;;;;5034471;28;20064;-89
2022/12/15 12:53:42;;;;;;;17.83;12.37;;;2.30;99.90;;;;;;5043656;28;20067;-90
2022/12/15 12:56:30;;;;;;;17.63;11.60;;;2.30;99.90;;;;;;5048257;28;20507;-90
2022/12/15 12:58:56;;;;;;;17.93;11.93;;;2.30;99.90;;;;;;5032188;28;20124;-91
2022/12/15 13:01:30;;;;;;;18.87;12.00;;;2.30;99.90;;;;;;5034179;28;20131;-89
2022/12/15 13:04:28;;;;;;;18.27;12.87;;;2.30;99.90;;;;;;5032444;28;20044;-91
2022/12/15 13:06:54;;;;;;;19.40;12.80;;;2.40;99.90;;;;;;5030934;28;20147;-89
2022/12/15 13:09:36;;;;;;;21.87;13.40;;;2.30;99.90;;;;;;5032736;28;20536;-90
2022/12/15 13:12:02;;;;;;;20.73;13.77;;;2.30;99.90;;;;;;5049438;28;20491;-89
2022/12/15 13:14:43;;;;;;;33.03;13.90;;;2.30;99.90;;;;;;5034835;28;20512;-88
2022/12/15 13:17:18;;;;;;;21.07;14.03;;;2.30;99.90;;;;;;5032800;28;20044;-89
2022/12/15 13:19:55;;;;;;;20.97;14.77;;;2.30;99.90;;;;;;5047773;28;20043;-88
2022/12/15 13:22:34;;;;;;;24.47;14.07;;;2.30;99.90;;;;;;5031582;28;20040;-88
2022/12/15 13:25:02;;;;;;;19.90;14.50;;;2.20;99.90;;;;;;5015945;28;20361;-90
2022/12/15 13:27:37;;;;;;;20.97;14.23;;;2.20;99.90;;;;;;5033172;28;20044;-90
2022/12/15 13:30:08;;;;;;;19.97;14.23;;;2.20;99.90;;;;;;5035704;28;20040;-89
2022/12/15 13:32:39;;;;;;;18.88;14.02;;;2.20;99.90;;;;;;5051082;28;20080;-89
2022/12/15 13:35:11;;;;;;;20.33;14.60;;;2.20;99.90;;;;;;5035548;28;20048;-91
2022/12/15 13:37:54;;;;;;;19.27;14.88;;;2.20;99.90;;;;;;5034374;28;20194;-88
2022/12/15 13:40:23;;;;;;;20.80;14.53;;;2.20;99.90;;;;;;5035274;28;20040;-86
2022/12/15 13:43:04;;;;;;;22.83;15.23;;;2.20;99.90;;;;;;5035487;28;20051;-88
2022/12/15 13:45:48;;;;;;;23.90;15.40;;;2.20;99.90;;;;;;5032347;28;20081;-89
2022/12/15 13:48:21;;;;;;;21.33;15.97;;;2.10;99.90;;;;;;5032205;28;20036;-89
2022/12/15 13:50:50;;;;;;;21.47;15.80;;;2.10;99.90;;;;;;5034656;28;20068;-87
2022/12/15 13:53:20;;;;;;;19.53;15.17;;;2.10;99.90;;;;;;5035427;28;20389;-88
2022/12/15 13:56:13;;;;;;;23.77;15.93;;;2.10;99.90;;;;;;5039312;28;20041;-88
2022/12/15 13:59:05;;;;;;;21.87;16.23;;;2.10;99.90;;;;;;5039209;28;20047;-90
2022/12/15 14:01:33;;;;;;;22.65;16.67;;;2.00;99.90;;;;;;5040519;28;20051;-91
2022/12/15 14:04:14;;;;;;;21.40;16.30;;;2.00;99.90;;;;;;5039235;28;20549;-90
2022/12/15 14:06:59;;;;;;;21.30;16.07;;;2.00;99.90;;;;;;5041125;28;20040;-90
2022/12/15 14:09:35;;;;;;;18.37;15.20;;;2.00;99.90;;;;;;5032898;28;20041;-91
2022/12/15 14:12:03;;;;;;;22.87;15.97;;;1.90;99.90;;;;;;5031932;28;20048;-89
2022/12/15 14:14:35;;;;;;;22.40;16.13;;;1.90;99.90;;;;;;5033875;28;20047;-90
2022/12/15 14:17:16;;;;;;;26.77;16.63;;;1.90;99.90;;;;;;5032709;28;20058;-89
2022/12/15 14:19:45;;;;;;;24.97;15.03;;;1.80;99.90;;;;;;5033612;28;20040;-91
2022/12/15 14:22:28;;;;;;;23.30;16.70;;;1.70;99.90;;;;;;5031675;28;20047;-90
2022/12/15 14:25:19;;;;;;;21.00;16.10;;;1.70;99.90;;;;;;5033073;28;20044;-88
2022/12/15 14:27:45;;;;;;;23.03;15.97;;;1.70;99.90;;;;;;5035581;28;20036;-89
2022/12/15 14:30:40;;;;;;;24.97;16.60;;;1.70;99.90;;;;;;5036476;28;20051;-89
2022/12/15 14:33:14;;;;;;;24.63;17.63;;;1.70;99.90;;;;;;5018560;28;20040;-89
2022/12/15 14:35:44;;;;;;;25.60;17.47;;;1.60;99.90;;;;;;5038506;28;20115;-89
2022/12/15 14:38:30;;;;;;;25.07;18.13;;;1.60;99.90;;;;;;5035201;28;20052;-88
2022/12/15 14:41:00;;;;;;;26.87;18.77;;;1.50;99.90;;;;;;5055663;28;20060;-88
2022/12/15 14:43:33;;;;;;;23.90;18.57;;;1.50;99.90;;;;;;5055745;28;20029;-89
2022/12/15 14:46:14;;;;;;;25.80;17.67;;;1.40;99.90;;;;;;5037759;28;20083;-87
2022/12/15 14:48:48;;;;;;;26.90;17.37;;;1.40;99.90;;;;;;5036665;28;20048;-89
2022/12/15 14:51:14;;;;;;;28.23;17.60;;;1.40;99.90;;;;;;5053082;28;20511;-87
2022/12/15 14:53:43;;;;;;;26.40;18.57;;;1.30;99.90;;;;;;5034715;28;20044;-89
2022/12/15 14:56:29;;;;;;;23.10;17.30;;;1.30;99.90;;;;;;5040031;28;20059;-88
2022/12/15 14:58:58;;;;;;;26.30;18.40;;;1.20;99.90;;;;;;5039652;28;20075;-88
2022/12/15 15:01:32;;;;;;;27.37;19.07;;;1.20;99.90;;;;;;5042390;28;20040;-88
2022/12/15 15:04:21;;;;;;;27.97;20.20;;;1.10;99.90;;;;;;5039481;28;20044;-87
2022/12/15 15:06:54;;;;;;;26.57;19.77;;;1.10;99.90;;;;;;5040874;28;20041;-87
2022/12/15 15:09:28;;;;;;;28.77;20.33;;;1.00;99.90;;;;;;5070374;28;20060;-87
2022/12/15 15:12:00;;;;;;;29.03;21.33;;;0.90;99.90;;;;;;5037452;28;20074;-90
2022/12/15 15:14:30;;;;;;;32.35;21.48;;;0.80;99.90;;;;;;5037904;28;20119;-90
2022/12/15 15:17:04;;;;;;;28.60;21.23;;;0.80;99.90;;;;;;5039074;28;20036;-89
2022/12/15 15:19:32;;;;;;;30.77;22.07;;;0.80;99.90;;;;;;5057134;28;20036;-88
2022/12/15 15:22:00;;;;;;;32.00;23.30;;;0.80;99.90;;;;;;5024396;28;20032;-87